Latest Weather Observations for Pallamana

IDS60901

Issued at 7:51 pm CDT Tuesday 22 October 2019 (issued every 10 minutes, with the page automatically refreshed every 10 minutes)

About weather observations | Map of Adelaide area stations | Latest observations for Adelaide area | Other Formats
Station Details ID: 024584 Name: PALLAMANA AERODROME Lat: -35.06 Lon: 139.23 Height: 45.0 m
Data from the previous 72 hours. | See also: Recent months at Pallamana
Date/Time
CDT
Temp
°C
App
Temp
°C
Dew
Point
°C
Rel
Hum
%
Delta-T
°C
Wind Press
QNH
hPa
Press
MSL
hPa
Rain since
9am
mm
Dir  Spd
km/h
Gust
km/h
Spd
kts
Gust
kts
22/07:30pm 23.2 19.0 1.6 24 10.1 SSW 13 15 7 8 1020.2 1020.2 0.0
22/07:00pm 26.3 20.6 -0.4 17 12.3 S 19 24 10 13 1019.9 1019.8 0.0
22/06:30pm 27.9 21.9 -1.3 15 13.4 S 20 28 11 15 1019.8 1019.7 0.0
22/06:00pm 29.0 22.9 -2.1 13 14.2 S 20 32 11 17 1019.7 1019.6 0.0
22/05:30pm 30.0 24.5 -2.3 12 14.8 SSE 17 24 9 13 1019.5 1019.4 0.0
22/05:00pm 30.2 25.4 -2.7 11 15.0 ESE 13 19 7 10 1019.6 1019.5 0.0
22/04:30pm 30.8 26.1 -1.5 12 15.1 SW 13 22 7 12 1019.7 1019.6 0.0
22/04:00pm 30.1 26.4 -0.1 14 14.4 E 9 17 5 9 1020.0 1020.0 0.0
22/03:30pm 30.2 25.6 -1.2 13 14.7 SSE 13 20 7 11 1020.3 1020.3 0.0
22/03:00pm 29.8 25.7 -0.5 14 14.3 SE 11 17 6 9 1020.8 1020.8 0.0
22/02:30pm 29.7 24.9 -2.2 12 14.6 ENE 13 24 7 13 1021.3 1021.3 0.0
22/02:00pm 29.1 24.8 -1.9 13 14.2 E 11 17 6 9 1021.9 1021.9 0.0
22/01:30pm 29.2 24.8 -2.6 12 14.4 S 11 19 6 10 1022.2 1022.2 0.0
22/01:00pm 28.8 25.3 -1.3 14 13.9 SSW 7 13 4 7 1022.6 1022.6 0.0
22/12:30pm 28.2 23.6 -1.0 15 13.5 NE 13 24 7 13 1023.1 1023.1 0.0
22/12:00pm 27.5 23.5 0.3 17 12.8 NE 11 17 6 9 1023.7 1023.7 0.0
22/11:30am 26.3 21.8 0.0 18 12.2 NNE 13 20 7 11 1024.1 1024.1 0.0
22/11:00am 25.2 20.1 0.7 20 11.5 NNE 17 24 9 13 1024.4 1024.4 0.0
22/10:30am 23.8 18.9 2.0 24 10.3 NNE 17 20 9 11 1024.8 1024.8 0.0
22/10:00am 22.2 17.3 1.7 26 9.5 NNE 17 22 9 12 1024.9 1024.9 0.0
22/09:30am 21.1 17.3 3.7 32 8.3 N 13 19 7 10 1025.1 1025.1 0.0
22/09:00am 17.9 15.0 4.9 42 6.2 NE 9 11 5 6 1025.0 1025.0 0.0
22/08:30am 15.3 13.3 6.9 57 4.1 NE 7 9 4 5 1025.2 1025.2 0.0
22/08:00am 13.4 11.5 6.7 64 3.2 WNW 6 6 3 3 1025.2 1025.2 0.0
22/07:30am 9.7 8.6 6.7 81 1.4 WNW 2 7 1 4 1025.1 1025.1 0.0
22/07:00am 6.2 5.0 4.8 91 0.6 CALM 0 0 0 0 1024.7 1024.7 0.0
22/06:30am 5.3 2.9 4.1 92 0.5 WNW 6 7 3 4 1024.5 1024.5 0.0
22/06:00am 5.5 4.1 3.6 87 0.8 CALM 0 0 0 0 1024.3 1024.3 0.0
22/05:30am 6.4 5.1 4.3 86 0.9 CALM 0 0 0 0 1024.2 1024.2 0.0
22/05:00am 5.7 4.3 3.5 86 0.9 CALM 0 0 0 0 1024.1 1024.1 0.0
22/04:30am 7.1 6.0 5.3 88 0.8 CALM 0 0 0 0 1024.0 1024.0 0.0
22/04:00am 6.0 4.7 3.9 86 0.9 CALM 0 0 0 0 1024.0 1024.0 0.0
22/03:30am 7.2 6.1 4.9 85 1.0 CALM 0 0 0 0 1024.1 1024.1 0.0
22/03:00am 7.6 5.7 5.1 84 1.1 WNW 4 7 2 4 1024.1 1024.1 0.0
22/02:30am 7.3 5.3 4.5 82 1.2 WNW 4 6 2 3 1024.4 1024.4 0.0
22/02:00am 7.9 5.7 5.4 84 1.1 WNW 6 7 3 4 1024.6 1024.6 0.0
22/01:30am 9.9 7.3 6.2 78 1.7 W 9 11 5 6 1025.0 1025.0 0.0
22/01:00am 9.0 8.1 5.9 81 1.4 CALM 0 0 0 0 1025.2 1025.2 0.0
22/12:30am 10.2 9.5 6.8 79 1.6 CALM 0 2 0 1 1025.4 1025.4 0.0
22/12:00am 12.6 9.6 7.9 73 2.3 WSW 13 17 7 9 1025.6 1025.6 0.0
 
Date/Time
CDT
Temp
°C
App
Temp
°C
Dew
Point
°C
Rel
Hum
%
Delta-T
°C
Wind Press
QNH
hPa
Press
MSL
hPa
Rain since
9am
mm
Dir  Spd
km/h
Gust
km/h
Spd
kts
Gust
kts
21/11:30pm 12.8 9.9 8.1 73 2.3 WSW 13 17 7 9 1025.8 1025.8 0.0
21/11:00pm 13.6 9.9 8.1 69 2.7 WSW 17 20 9 11 1025.8 1025.8 0.0
21/10:30pm 14.0 10.3 7.9 66 3.0 WSW 17 20 9 11 1025.9 1025.9 0.0
21/10:00pm 14.5 10.8 7.8 64 3.3 WSW 17 20 9 11 1025.9 1025.9 0.0
21/09:30pm 15.3 11.1 7.6 60 3.8 WSW 19 20 10 11 1025.9 1025.9 0.0
21/09:00pm 16.6 12.6 6.8 52 4.8 SW 17 20 9 11 1025.7 1025.7 0.0
21/08:30pm 17.1 13.1 6.5 49 5.2 SW 17 20 9 11 1025.4 1025.4 0.0
21/08:00pm 18.4 14.0 6.5 45 5.9 SW 19 20 10 11 1025.1 1025.1 0.0
21/07:30pm 20.4 16.5 5.3 37 7.4 S 15 20 8 11 1024.9 1024.9 0.0
21/07:00pm 22.0 17.1 4.3 31 8.7 S 19 28 10 15 1024.8 1024.8 0.0
21/06:30pm 23.0 17.1 1.5 24 10.0 S 22 30 12 16 1024.6 1024.6 0.0
21/06:00pm 24.4 18.9 2.1 23 10.6 SSE 20 28 11 15 1024.4 1024.4 0.0
21/05:30pm 24.9 19.6 1.6 22 11.0 SSE 19 26 10 14 1024.3 1024.3 0.0
21/05:00pm 26.0 20.9 0.5 19 12.0 SSE 17 26 9 14 1024.2 1024.2 0.0
21/04:30pm 26.2 22.6 0.5 18 12.0 SE 9 19 5 10 1024.3 1024.3 0.0
21/04:00pm 26.3 22.3 0.8 19 12.0 SSE 11 19 6 10 1024.4 1024.4 0.0
21/03:30pm 25.3 20.6 0.9 20 11.4 S 15 24 8 13 1024.7 1024.7 0.0
21/03:00pm 26.3 23.0 2.3 21 11.6 SW 9 17 5 9 1025.3 1025.3 0.0
21/02:30pm 24.9 21.5 1.6 22 11.0 SE 9 15 5 8 1025.7 1025.7 0.0
21/02:00pm 24.3 20.8 1.5 22 10.7 SSE 9 13 5 7 1026.1 1026.1 0.0
21/01:30pm 24.0 20.8 3.0 25 10.1 E 9 15 5 8 1026.4 1026.4 0.0
21/01:00pm 22.7 20.0 3.6 28 9.3 E 7 13 4 7 1026.8 1026.8 0.0
21/12:30pm 22.4 19.1 4.4 31 8.8 NNE 11 19 6 10 1027.3 1027.3 0.0
21/12:00pm 20.7 17.1 5.2 36 7.6 NNE 13 20 7 11 1027.7 1027.7 0.0
21/11:30am 19.9 16.4 5.4 38 7.1 NE 13 22 7 12 1028.1 1028.1 0.0
21/11:00am 18.9 15.0 5.5 41 6.6 NE 15 22 8 12 1028.7 1028.7 0.0
21/10:30am 16.6 12.4 5.5 48 5.3 N 17 24 9 13 1029.2 1029.2 0.0
21/10:00am 16.0 11.4 5.5 49 5.0 NNE 19 24 10 13 1029.4 1029.4 0.0
21/09:30am 14.2 10.0 5.7 56 4.0 NNE 17 24 9 13 1029.8 1029.8 0.0
21/09:00am 12.8 9.0 5.7 62 3.3 NE 15 20 8 11 1029.8 1029.8 0.0
21/08:30am 11.3 7.8 5.6 68 2.6 NNE 13 15 7 8 1029.9 1029.9 0.0
21/08:00am 8.0 7.1 6.2 88 0.8 CALM 0 0 0 0 1029.8 1029.8 0.0
21/07:30am 5.2 3.9 4.3 94 0.4 CALM 0 0 0 0 1029.6 1029.6 0.0
21/07:00am 2.3 0.6 1.8 96 0.2 CALM 0 0 0 0 1029.3 1029.3 0.0
21/06:30am 1.0 -1.3 0.2 94 0.3 WNW 2 6 1 3 1029.0 1029.0 0.0
21/06:00am 1.6 -0.6 0.8 94 0.3 WNW 2 7 1 4 1028.7 1028.7 0.0
21/05:30am 2.3 0.5 1.2 92 0.4 CALM 0 0 0 0 1028.8 1028.8 0.0
21/05:00am 2.7 -0.6 2.2 96 0.2 WNW 9 13 5 7 1028.8 1028.8 0.0
21/04:30am 3.0 0.6 2.0 93 0.4 W 4 11 2 6 1028.6 1028.6 0.0
21/04:00am 2.6 0.9 1.6 93 0.4 CALM 0 0 0 0 1028.4 1028.4 0.0
21/03:30am 3.8 1.0 2.3 90 0.6 W 6 7 3 4 1028.4 1028.4 0.0
21/03:00am 2.9 0.5 1.9 93 0.4 WSW 4 7 2 4 1028.3 1028.3 0.0
21/02:30am 4.2 2.7 3.0 92 0.5 CALM 0 0 0 0 1028.7 1028.7 0.0
21/02:00am 3.4 1.7 1.9 90 0.6 CALM 0 0 0 0 1029.1 1029.1 0.0
21/01:30am 3.5 1.4 1.4 86 0.8 WSW 2 6 1 3 1030.0 1030.0 0.0
21/01:00am 4.8 2.5 2.8 87 0.8 WSW 4 7 2 4 1030.6 1030.6 0.0
21/12:30am 7.9 5.1 5.2 83 1.2 SW 9 11 5 6 1030.8 1030.8 0.0
21/12:00am 6.8 4.3 4.7 86 0.9 SW 7 9 4 5 1030.8 1030.8 0.0
 
Date/Time
CDT
Temp
°C
App
Temp
°C
Dew
Point
°C
Rel
Hum
%
Delta-T
°C
Wind Press
QNH
hPa
Press
MSL
hPa
Rain since
9am
mm
Dir  Spd
km/h
Gust
km/h
Spd
kts
Gust
kts
20/11:30pm 7.3 4.8 5.0 85 1.0 SW 7 9 4 5 1030.7 1030.7 0.0
20/11:00pm 7.7 5.3 5.2 84 1.1 SW 7 9 4 5 1030.7 1030.7 0.0
20/10:30pm 8.6 5.5 5.7 82 1.3 SW 11 13 6 7 1030.7 1030.7 0.0
20/10:00pm 9.2 6.2 5.9 80 1.5 SW 11 13 6 7 1030.7 1030.7 0.0
20/09:30pm 9.5 6.0 5.5 76 1.8 SW 13 15 7 8 1030.4 1030.4 0.0
20/09:00pm 10.5 7.1 5.7 72 2.2 SSW 13 15 7 8 1030.1 1030.1 0.0
20/08:30pm 11.6 8.2 5.8 67 2.7 S 13 15 7 8 1029.8 1029.8 0.0
20/08:00pm 12.3 8.6 6.1 66 2.9 S 15 19 8 10 1029.5 1029.5 0.0
20/07:30pm 13.5 9.7 5.6 59 3.7 S 15 24 8 13 1029.1 1029.1 0.0
20/07:00pm 14.5 9.8 5.9 56 4.1 S 20 28 11 15 1028.8 1028.8 0.0
20/06:30pm 15.7 10.9 5.4 50 4.9 S 20 26 11 14 1028.6 1028.6 0.0
20/06:00pm 16.6 11.4 5.5 48 5.3 SSE 22 30 12 16 1028.3 1028.3 0.0
20/05:30pm 17.2 11.6 5.3 45 5.7 S 24 33 13 18 1028.2 1028.2 0.0
20/05:00pm 17.3 11.7 5.2 45 5.8 S 24 35 13 19 1027.9 1027.9 0.0
20/04:30pm 18.7 13.0 4.7 39 6.7 S 24 39 13 21 1027.9 1027.9 0.0
20/04:00pm 18.6 12.8 4.5 39 6.8 SSE 24 32 13 17 1027.8 1027.8 0.0
20/03:30pm 19.6 14.2 4.6 37 7.2 S 22 30 12 16 1027.9 1027.9 0.0
20/03:00pm 19.3 14.5 4.7 38 7.0 S 19 30 10 16 1027.9 1027.9 0.0
20/02:30pm 19.4 14.4 4.6 37 7.1 SSW 20 30 11 16 1028.1 1028.1 0.0
20/02:00pm 20.1 15.1 4.5 36 7.6 SSW 20 30 11 16 1028.1 1028.1 0.0
20/01:30pm 18.4 13.3 4.2 39 6.7 S 20 30 11 16 1028.2 1028.2 0.0
20/01:00pm 18.9 14.5 2.9 34 7.4 SSW 15 26 8 14 1028.3 1028.3 0.0
20/12:30pm 18.4 14.6 3.9 38 6.8 SW 13 24 7 13 1028.6 1028.6 0.0
20/12:00pm 17.6 14.7 4.7 42 6.1 SW 9 17 5 9 1028.8 1028.8 0.0
20/11:30am 16.7 13.8 4.6 44 5.7 SW 9 13 5 7 1029.1 1029.1 0.0
20/11:00am 15.6 12.8 5.2 50 4.9 SW 9 13 5 7 1029.5 1029.5 0.0
20/10:30am 15.4 12.1 6.3 54 4.4 SW 13 19 7 10 1029.8 1029.8 0.0
20/10:00am 14.0 10.7 6.5 60 3.6 SSW 13 20 7 11 1029.9 1029.9 0.0
20/09:30am 13.6 10.9 7.4 66 3.0 S 11 15 6 8 1029.9 1029.9 0.0
20/09:00am 12.8 9.1 7.9 72 2.4 SSE 17 22 9 12 1030.0 1030.0 0.2
20/08:30am 12.6 9.5 7.4 70 2.5 SSW 13 17 7 9 1029.7 1029.7 0.2
20/08:00am 12.0 9.3 7.2 72 2.3 SW 11 13 6 7 1029.4 1029.4 0.2
20/07:30am 11.5 7.9 6.9 73 2.2 WSW 15 17 8 9 1029.1 1029.1 0.2
20/07:00am 10.9 7.7 6.9 76 1.9 WSW 13 15 7 8 1028.7 1028.7 0.2
20/06:30am 10.6 7.3 6.3 75 2.0 WSW 13 15 7 8 1028.5 1028.5 0.2
20/06:00am 10.5 7.1 5.9 73 2.1 W 13 17 7 9 1028.1 1028.1 0.2
20/05:30am 9.9 6.1 6.0 77 1.8 W 15 17 8 9 1027.6 1027.6 0.2
20/05:00am 9.3 5.5 5.8 79 1.6 W 15 19 8 10 1027.2 1027.2 0.2
20/04:30am 8.5 4.7 5.6 82 1.3 W 15 17 8 9 1027.1 1027.1 0.2
20/04:00am 8.4 4.5 5.5 82 1.3 W 15 19 8 10 1027.0 1027.0 0.2
20/03:30am 8.4 4.9 5.5 82 1.3 W 13 17 7 9 1027.0 1027.0 0.2
20/03:00am 8.8 5.4 5.7 81 1.4 W 13 17 7 9 1027.0 1027.0 0.2
20/02:30am 9.6 5.8 5.6 76 1.8 W 15 19 8 10 1027.0 1027.0 0.2
20/02:00am 9.1 5.6 5.6 79 1.6 W 13 17 7 9 1027.0 1027.0 0.2
20/01:30am 9.0 5.6 5.7 80 1.5 W 13 15 7 8 1027.1 1027.1 0.2
20/01:00am 8.4 4.4 5.0 79 1.5 W 15 17 8 9 1027.1 1027.1 0.2
20/12:30am 8.3 4.3 4.9 79 1.5 W 15 19 8 10 1027.1 1027.1 0.2
20/12:00am 8.5 4.5 4.9 78 1.6 W 15 17 8 9 1026.9 1026.9 0.2
 
Date/Time
CDT
Temp
°C
App
Temp
°C
Dew
Point
°C
Rel
Hum
%
Delta-T
°C
Wind Press
QNH
hPa
Press
MSL
hPa
Rain since
9am
mm
Dir  Spd
km/h
Gust
km/h
Spd
kts
Gust
kts
19/11:30pm 8.5 4.9 4.9 78 1.6 W 13 17 7 9 1026.9 1026.9 0.2
19/11:00pm 8.5 4.9 5.1 79 1.5 W 13 17 7 9 1026.9 1026.9 0.2
19/10:30pm 8.9 5.3 5.1 77 1.7 W 13 15 7 8 1027.0 1027.0 0.2
19/10:00pm 9.2 5.6 5.2 76 1.8 W 13 15 7 8 1027.0 1027.0 0.2
19/09:30pm 9.8 6.7 5.4 74 2.0 W 11 15 6 8 1026.9 1026.9 0.2
19/09:00pm 9.3 6.1 5.0 74 1.9 WSW 11 13 6 7 1026.7 1026.7 0.2
19/08:30pm 10.3 6.4 5.5 72 2.2 SW 15 19 8 10 1026.3 1026.3 0.2
19/08:00pm 11.0 7.4 5.0 66 2.7 SSW 13 17 7 9 1025.9 1025.9 0.2

Latest Capital City Observations: Canberra | Sydney | Melbourne | Brisbane | Adelaide | Perth | Hobart | Darwin

Other formats

Comma delimited format used in spreadsheet applications
http://www.bom.gov.au/fwo/IDS60901/IDS60901.95818.axf

JavaScript Object Notation format (JSON) in row-major order
http://www.bom.gov.au/fwo/IDS60901/IDS60901.95818.json

Data quality

Most of these data are generated automatically and are frequently updated. Quality checks on data are not normally performed. It is possible for incorrect values to appear. Refer to information at About Latest Weather Observations and please check the disclaimer before using these data.